createdAt,value
2023-02-19T00:00:30.748Z,97745.50
2023-02-19T00:03:02.628Z,97744.75
2023-02-19T00:05:33.873Z,97741.25
2023-02-19T00:08:03.742Z,97747.13
2023-02-19T00:10:38.271Z,97753.59
2023-02-19T00:13:09.428Z,97748.75
2023-02-19T00:15:39.743Z,97748.63
2023-02-19T00:18:09.816Z,97755.72
2023-02-19T00:20:39.752Z,97753.94
2023-02-19T00:23:10.004Z,97750.72
2023-02-19T00:25:41.536Z,97748.28
2023-02-19T00:28:11.601Z,97741.34
2023-02-19T00:30:41.556Z,97732.97
2023-02-19T00:33:11.718Z,97747.19
2023-02-19T00:35:41.422Z,97744.25
2023-02-19T00:38:12.054Z,97743.84
2023-02-19T00:40:44.409Z,97754.19
2023-02-19T00:43:14.946Z,97752.13
2023-02-19T00:45:45.725Z,97761.81
2023-02-19T00:48:16.151Z,97762.94
2023-02-19T00:50:46.501Z,97765.56
2023-02-19T00:53:16.408Z,97773.22
2023-02-19T00:55:48.835Z,97769.50
2023-02-19T00:58:18.710Z,97762.88
2023-02-19T01:00:49.836Z,97766.84
2023-02-19T01:03:19.829Z,97766.00
2023-02-19T01:05:50.700Z,97758.22
2023-02-19T01:08:20.198Z,97753.88
2023-02-19T01:10:52.343Z,97746.88
2023-02-19T01:13:23.841Z,97745.63
2023-02-19T01:15:56.229Z,97727.47
2023-02-19T01:18:26.515Z,97725.88
2023-02-19T01:20:56.909Z,97729.09
2023-02-19T01:23:27.464Z,97730.38
2023-02-19T01:26:00.201Z,97722.03
2023-02-19T01:28:31.119Z,97732.56
2023-02-19T01:31:04.897Z,97719.44
2023-02-19T01:33:36.978Z,97715.75
2023-02-19T01:36:09.423Z,97714.59
2023-02-19T01:38:41.123Z,97702.38
2023-02-19T01:41:16.520Z,97708.25
2023-02-19T01:44:03.348Z,97703.72
2023-02-19T01:46:35.639Z,97699.41
2023-02-19T01:49:10.116Z,97704.38
2023-02-19T01:51:43.896Z,97710.03
2023-02-19T01:54:17.327Z,97703.03
2023-02-19T01:56:53.487Z,97701.91
2023-02-19T01:59:24.642Z,97704.94
2023-02-19T02:01:55.790Z,97702.34
2023-02-19T02:04:26.383Z,97702.88
2023-02-19T02:06:58.956Z,97701.81
2023-02-19T02:09:49.604Z,97706.59
2023-02-19T02:12:22.154Z,97710.47
2023-02-19T02:14:52.892Z,97718.56
2023-02-19T02:17:28.485Z,97709.09
2023-02-19T02:20:39.286Z,97712.19
2023-02-19T02:23:19.397Z,97690.31
2023-02-19T02:26:11.849Z,97698.53
2023-02-19T02:29:19.804Z,97699.78
2023-02-19T02:31:59.081Z,97696.97
2023-02-19T02:34:35.800Z,97704.06
2023-02-19T02:37:11.487Z,97699.06
2023-02-19T02:39:45.891Z,97697.38
2023-02-19T02:42:30.593Z,97687.09
2023-02-19T02:45:34.439Z,97680.97
2023-02-19T02:48:35.897Z,97678.63
2023-02-19T02:51:15.659Z,97682.25
2023-02-19T02:54:08.593Z,97666.84
2023-02-19T02:56:40.497Z,97692.63
2023-02-19T02:59:13.054Z,97698.63
2023-02-19T03:02:12.116Z,97692.34
2023-02-19T03:05:06.845Z,97713.69
2023-02-19T03:07:40.637Z,97683.69
2023-02-19T03:10:14.841Z,97691.06
2023-02-19T03:13:04.396Z,97693.97
2023-02-19T03:15:56.259Z,97689.53
2023-02-19T03:18:45.297Z,97697.09
2023-02-19T03:21:20.886Z,97667.88
2023-02-19T03:24:09.383Z,97666.69
2023-02-19T03:26:43.015Z,97673.63
2023-02-19T03:29:26.409Z,97658.50
2023-02-19T03:31:59.734Z,97665.69
2023-02-19T03:34:34.528Z,97675.47
2023-02-19T03:37:12.690Z,97677.50
2023-02-19T03:39:46.173Z,97673.50
2023-02-19T03:42:23.462Z,97671.03
2023-02-19T03:45:08.129Z,97669.88
2023-02-19T03:47:44.263Z,97673.91
2023-02-19T03:50:18.988Z,97661.13
2023-02-19T03:52:59.020Z,97678.06
2023-02-19T03:55:34.881Z,97672.59
2023-02-19T03:58:10.705Z,97675.13
2023-02-19T04:00:44.944Z,97669.50
2023-02-19T04:03:20.942Z,97675.72
2023-02-19T04:05:55.733Z,97674.22
2023-02-19T04:08:29.437Z,97675.34
2023-02-19T04:11:01.929Z,97661.94
2023-02-19T04:13:37.583Z,97672.78
2023-02-19T04:16:23.665Z,97658.44
2023-02-19T04:18:57.969Z,97666.03
2023-02-19T04:21:33.333Z,97669.00
2023-02-19T04:24:08.475Z,97671.78
2023-02-19T04:26:43.889Z,97664.22
2023-02-19T04:29:16.122Z,97665.19
2023-02-19T04:31:47.185Z,97662.91
2023-02-19T04:34:22.826Z,97651.69
2023-02-19T04:36:54.942Z,97667.50
2023-02-19T04:39:27.858Z,97662.66
2023-02-19T04:41:58.306Z,97672.00
2023-02-19T04:44:29.326Z,97664.44
2023-02-19T04:47:00.256Z,97665.53
2023-02-19T04:49:31.422Z,97656.81
2023-02-19T04:52:01.591Z,97663.22
2023-02-19T04:54:33.948Z,97651.38
2023-02-19T04:57:03.889Z,97657.78
2023-02-19T04:59:34.119Z,97657.84
2023-02-19T05:02:04.258Z,97646.53
2023-02-19T05:04:34.753Z,97646.16
2023-02-19T05:07:04.964Z,97663.03
2023-02-19T05:09:37.114Z,97646.81
2023-02-19T05:12:07.396Z,97647.13
2023-02-19T05:14:38.450Z,97645.72
2023-02-19T05:17:08.571Z,97641.03
2023-02-19T05:19:38.846Z,97641.34
2023-02-19T05:22:09.232Z,97657.31
2023-02-19T05:24:43.246Z,97648.78
2023-02-19T05:27:14.120Z,97658.91
2023-02-19T05:29:44.261Z,97655.72
2023-02-19T05:32:14.732Z,97626.88
2023-02-19T05:34:44.999Z,97618.13
2023-02-19T05:37:15.052Z,97630.56
2023-02-19T05:39:46.544Z,97619.25
2023-02-19T05:42:18.329Z,97641.91
2023-02-19T05:44:48.735Z,97629.88
2023-02-19T05:47:18.527Z,97634.22
2023-02-19T05:49:49.288Z,97623.28
2023-02-19T05:52:19.728Z,97682.56
2023-02-19T05:54:50.838Z,97639.22
2023-02-19T05:57:21.914Z,97675.03
2023-02-19T05:59:52.160Z,97662.72
2023-02-19T06:02:22.668Z,97678.03
2023-02-19T06:04:52.881Z,97655.19
2023-02-19T06:07:23.268Z,97666.69
2023-02-19T06:09:55.285Z,97661.63
2023-02-19T06:12:25.490Z,97658.09
2023-02-19T06:14:55.962Z,97665.22
2023-02-19T06:17:26.575Z,97646.00
2023-02-19T06:19:56.866Z,97641.84
2023-02-19T06:22:27.941Z,97642.63
2023-02-19T06:25:00.271Z,97671.59
2023-02-19T06:27:30.751Z,97656.84
2023-02-19T06:30:01.261Z,97673.09
2023-02-19T06:32:32.255Z,97687.63
2023-02-19T06:35:03.213Z,97655.34
2023-02-19T06:37:34.240Z,97682.94
2023-02-19T06:40:06.073Z,97639.50
2023-02-19T06:42:36.490Z,97663.38
2023-02-19T06:45:07.556Z,97651.88
2023-02-19T06:47:38.146Z,97637.81
2023-02-19T06:50:09.192Z,97662.09
2023-02-19T06:52:39.924Z,97623.22
2023-02-19T06:55:12.979Z,97660.34
2023-02-19T06:57:44.113Z,97656.56
2023-02-19T07:00:15.967Z,97672.19
2023-02-19T07:02:48.865Z,97660.63
2023-02-19T07:05:19.280Z,97663.91
2023-02-19T07:07:51.100Z,97658.31
2023-02-19T07:10:22.817Z,97653.44
2023-02-19T07:12:52.807Z,97673.03
2023-02-19T07:15:23.568Z,97681.09
2023-02-19T07:17:53.786Z,97666.75
2023-02-19T07:20:24.829Z,97673.94
2023-02-19T07:22:55.740Z,97669.25
2023-02-19T07:25:27.629Z,97682.66
2023-02-19T07:27:58.245Z,97663.06
2023-02-19T07:30:28.567Z,97669.78
2023-02-19T07:32:58.640Z,97669.88
2023-02-19T07:35:28.817Z,97670.53
2023-02-19T07:37:59.274Z,97654.31
2023-02-19T07:40:31.973Z,97661.09
2023-02-19T07:43:03.074Z,97647.47
2023-02-19T07:45:33.539Z,97650.31
2023-02-19T07:48:04.215Z,97647.31
2023-02-19T07:50:34.191Z,97655.84
2023-02-19T07:53:04.749Z,97673.69
2023-02-19T07:55:37.752Z,97672.16
2023-02-19T07:58:08.210Z,97653.38
2023-02-19T08:00:38.931Z,97665.53
2023-02-19T08:03:08.398Z,97652.06
2023-02-19T08:05:41.097Z,97648.19
2023-02-19T08:08:12.614Z,97638.47
2023-02-19T08:11:01.983Z,97661.94
2023-02-19T08:13:34.429Z,97638.91
2023-02-19T08:16:24.151Z,97645.22
2023-02-19T08:19:00.473Z,97653.97
2023-02-19T08:21:31.302Z,97639.81
2023-02-19T08:24:02.136Z,97659.56
2023-02-19T08:26:34.698Z,97658.50
2023-02-19T08:29:04.764Z,97658.34
2023-02-19T08:31:35.918Z,97660.63
2023-02-19T08:34:06.348Z,97666.78
2023-02-19T08:36:36.657Z,97680.81
2023-02-19T08:39:06.940Z,97679.34
2023-02-19T08:41:38.699Z,97672.41
2023-02-19T08:44:09.424Z,97652.47
2023-02-19T08:46:39.422Z,97648.41
2023-02-19T08:49:28.164Z,97646.53
2023-02-19T08:51:57.977Z,97637.75
2023-02-19T08:54:27.723Z,97640.78
2023-02-19T08:57:02.268Z,97638.19
2023-02-19T08:59:32.750Z,97643.56
2023-02-19T09:02:02.817Z,97648.50
2023-02-19T09:04:33.206Z,97655.44
2023-02-19T09:07:03.179Z,97658.56
2023-02-19T09:09:33.878Z,97651.69
2023-02-19T09:12:07.163Z,97657.09
2023-02-19T09:14:37.929Z,97651.56
2023-02-19T09:17:08.752Z,97653.22
2023-02-19T09:19:39.285Z,97646.22
2023-02-19T09:22:09.596Z,97647.53
2023-02-19T09:24:40.114Z,97649.44
2023-02-19T09:27:12.374Z,97647.19
2023-02-19T09:29:42.503Z,97642.56
2023-02-19T09:32:12.929Z,97648.34
2023-02-19T09:34:43.589Z,97631.03
2023-02-19T09:37:14.146Z,97628.34
2023-02-19T09:39:44.511Z,97624.91
2023-02-19T09:42:21.244Z,97633.41
2023-02-19T09:44:53.115Z,97630.31
2023-02-19T09:47:25.635Z,97634.94
2023-02-19T09:49:57.710Z,97635.72
2023-02-19T09:52:33.089Z,97639.19
2023-02-19T09:55:07.657Z,97624.94
2023-02-19T09:57:39.265Z,97629.53
2023-02-19T10:00:21.662Z,97615.25
2023-02-19T10:02:55.197Z,97623.31
2023-02-19T10:05:27.035Z,97621.19
2023-02-19T10:07:58.282Z,97614.81
2023-02-19T10:10:32.354Z,97615.00
2023-02-19T10:13:16.767Z,97620.41
2023-02-19T10:15:49.435Z,97616.44
2023-02-19T10:18:21.329Z,97603.47
2023-02-19T10:20:53.089Z,97608.63
2023-02-19T10:23:23.634Z,97618.84
2023-02-19T10:25:57.336Z,97617.22
2023-02-19T10:28:31.734Z,97619.56
2023-02-19T10:31:03.898Z,97612.91
2023-02-19T10:33:34.445Z,97629.50
2023-02-19T10:36:06.566Z,97617.19
2023-02-19T10:38:38.553Z,97620.59
2023-02-19T10:41:10.024Z,97606.94
2023-02-19T10:43:45.219Z,97597.69
2023-02-19T10:46:19.335Z,97597.66
2023-02-19T10:48:53.526Z,97593.66
2023-02-19T10:51:25.583Z,97588.25
2023-02-19T10:54:07.237Z,97584.88
2023-02-19T10:56:38.949Z,97583.88
2023-02-19T10:59:27.740Z,97583.00
2023-02-19T11:01:58.990Z,97579.31
2023-02-19T11:04:34.299Z,97577.47
2023-02-19T11:07:10.832Z,97581.69
2023-02-19T11:09:43.024Z,97574.88
2023-02-19T11:12:13.160Z,97562.72
2023-02-19T11:14:46.112Z,97562.44
2023-02-19T11:17:26.380Z,97555.84
2023-02-19T11:19:57.724Z,97569.59
2023-02-19T11:22:33.811Z,97563.94
2023-02-19T11:25:07.997Z,97555.56
2023-02-19T11:27:38.365Z,97545.59
2023-02-19T11:30:41.408Z,97542.97
2023-02-19T11:33:35.616Z,97540.16
2023-02-19T11:36:33.862Z,97532.66
2023-02-19T11:39:24.677Z,97519.31
2023-02-19T11:42:07.648Z,97520.41
2023-02-19T11:44:49.830Z,97519.88
2023-02-19T11:47:54.138Z,97520.59
2023-02-19T11:50:30.059Z,97509.50
2023-02-19T11:53:12.548Z,97513.47
2023-02-19T11:55:55.057Z,97513.19
2023-02-19T11:58:53.368Z,97504.13
2023-02-19T12:01:29.973Z,97502.06
2023-02-19T12:04:32.379Z,97512.72
2023-02-19T12:07:09.521Z,97513.75
2023-02-19T12:09:52.333Z,97501.97
2023-02-19T12:12:33.418Z,97512.91
2023-02-19T12:15:15.874Z,97501.00
2023-02-19T12:18:17.656Z,97502.47
2023-02-19T12:20:55.413Z,97513.19
2023-02-19T12:23:55.072Z,97522.91
2023-02-19T12:26:30.193Z,97503.38
2023-02-19T12:29:12.895Z,97503.94
2023-02-19T12:32:15.935Z,97506.50
2023-02-19T12:35:16.540Z,97513.94
2023-02-19T12:37:52.231Z,97522.91
2023-02-19T12:40:37.811Z,97527.56
2023-02-19T12:43:25.092Z,97531.84
2023-02-19T12:45:58.906Z,97533.66
2023-02-19T12:48:31.917Z,97536.84
2023-02-19T12:51:07.564Z,97516.28
2023-02-19T12:53:42.498Z,97520.47
2023-02-19T12:56:17.459Z,97511.97
2023-02-19T12:58:52.965Z,97536.78
2023-02-19T13:01:27.638Z,97513.00
2023-02-19T13:04:18.217Z,97515.09
2023-02-19T13:06:53.625Z,97522.59
2023-02-19T13:09:28.749Z,97525.38
2023-02-19T13:12:03.768Z,97522.84
2023-02-19T13:14:38.133Z,97523.25
2023-02-19T13:17:13.444Z,97523.97
2023-02-19T13:19:44.769Z,97518.19
2023-02-19T13:22:42.002Z,97532.34
2023-02-19T13:25:14.617Z,97531.00
2023-02-19T13:28:07.474Z,97527.97
2023-02-19T13:31:03.705Z,97530.56
2023-02-19T13:33:46.605Z,97540.25
2023-02-19T13:36:22.876Z,97548.00
2023-02-19T13:38:54.072Z,97553.25
2023-02-19T13:41:33.228Z,97553.13
2023-02-19T13:44:06.762Z,97562.91
2023-02-19T13:46:42.630Z,97548.16
2023-02-19T13:49:45.228Z,97545.78
2023-02-19T13:52:48.201Z,97543.81
2023-02-19T13:55:57.065Z,97550.84
2023-02-19T13:59:06.290Z,97552.06
2023-02-19T14:02:27.162Z,97574.16
2023-02-19T14:05:00.445Z,97583.00
2023-02-19T14:07:57.105Z,97586.72
2023-02-19T14:11:04.125Z,97593.75
2023-02-19T14:14:27.235Z,97576.63
2023-02-19T14:17:31.335Z,97593.88
2023-02-19T14:20:04.916Z,97599.47
2023-02-19T14:23:11.663Z,97597.56
2023-02-19T14:25:56.904Z,97592.13
2023-02-19T14:28:45.708Z,97619.47
2023-02-19T14:31:26.539Z,97610.66
2023-02-19T14:34:03.785Z,97619.47
2023-02-19T14:36:44.767Z,97630.25
2023-02-19T14:39:19.103Z,97611.25
2023-02-19T14:41:54.229Z,97630.16
2023-02-19T14:44:28.392Z,97632.66
2023-02-19T14:47:07.209Z,97654.72
2023-02-19T14:49:46.193Z,97633.53
2023-02-19T14:52:25.315Z,97644.91
2023-02-19T14:54:59.095Z,97651.22
2023-02-19T14:57:34.386Z,97666.84
2023-02-19T15:00:24.406Z,97665.22
2023-02-19T15:02:58.013Z,97682.00
2023-02-19T15:05:35.328Z,97676.56
2023-02-19T15:08:10.750Z,97686.84
2023-02-19T15:10:44.403Z,97670.78
2023-02-19T15:13:23.986Z,97688.41
2023-02-19T15:15:55.872Z,97703.75
2023-02-19T15:18:30.308Z,97700.34
2023-02-19T15:21:08.502Z,97698.59
2023-02-19T15:23:39.311Z,97694.84
2023-02-19T15:26:22.491Z,97698.38
2023-02-19T15:29:01.740Z,97705.44
2023-02-19T15:31:32.859Z,97706.66
2023-02-19T15:34:04.129Z,97718.56
2023-02-19T15:36:37.421Z,97702.28
2023-02-19T15:39:07.846Z,97708.56
2023-02-19T15:41:38.336Z,97721.41
2023-02-19T15:44:31.479Z,97710.41
2023-02-19T15:47:11.016Z,97733.16
2023-02-19T15:49:51.982Z,97736.06
2023-02-19T15:52:36.294Z,97745.47
2023-02-19T15:55:27.962Z,97734.31
2023-02-19T15:58:08.835Z,97741.81
2023-02-19T16:00:44.141Z,97736.94
2023-02-19T16:03:21.516Z,97731.91
2023-02-19T16:06:03.089Z,97724.78
2023-02-19T16:08:37.920Z,97738.81
2023-02-19T16:11:28.222Z,97718.25
2023-02-19T16:14:24.211Z,97727.59
2023-02-19T16:16:58.334Z,97746.00
2023-02-19T16:19:31.140Z,97732.63
2023-02-19T16:22:03.027Z,97734.50
2023-02-19T16:24:42.456Z,97741.28
2023-02-19T16:27:13.944Z,97753.84
2023-02-19T16:29:43.878Z,97751.25
2023-02-19T16:32:19.053Z,97771.94
2023-02-19T16:34:52.396Z,97770.41
2023-02-19T16:37:38.203Z,97779.53
2023-02-19T16:41:04.879Z,97782.28
2023-02-19T16:43:44.792Z,97792.09
2023-02-19T16:46:16.112Z,97787.13
2023-02-19T16:49:22.813Z,97787.25
2023-02-19T16:51:55.629Z,97796.50
2023-02-19T16:54:27.401Z,97803.97
2023-02-19T16:56:57.626Z,97809.97
2023-02-19T16:59:30.966Z,97814.31
2023-02-19T17:02:01.071Z,97803.91
2023-02-19T17:04:32.436Z,97807.13
2023-02-19T17:07:04.045Z,97804.63
2023-02-19T17:09:34.503Z,97806.81
2023-02-19T17:12:08.086Z,97812.44
2023-02-19T17:14:40.181Z,97823.38
2023-02-19T17:17:10.380Z,97809.47
2023-02-19T17:19:43.120Z,97798.38
2023-02-19T17:22:17.593Z,97808.69
2023-02-19T17:24:48.987Z,97806.63
2023-02-19T17:27:18.760Z,97808.38
2023-02-19T17:29:50.106Z,97800.41
2023-02-19T17:32:20.579Z,97809.81
2023-02-19T17:34:52.314Z,97810.25
2023-02-19T17:37:22.357Z,97809.72
2023-02-19T17:39:53.190Z,97814.09
2023-02-19T17:42:24.100Z,97800.88
2023-02-19T17:44:56.557Z,97796.50
2023-02-19T17:47:27.049Z,97800.47
2023-02-19T17:49:57.980Z,97799.56
2023-02-19T17:52:29.770Z,97819.81
2023-02-19T17:55:01.470Z,97810.91
2023-02-19T17:57:34.112Z,97818.69
2023-02-19T18:00:09.108Z,97820.31
2023-02-19T18:02:39.776Z,97813.38
2023-02-19T18:05:12.771Z,97814.56
2023-02-19T18:07:43.649Z,97844.19
2023-02-19T18:10:15.652Z,97848.09
2023-02-19T18:12:46.899Z,97837.28
2023-02-19T18:15:24.170Z,97856.19
2023-02-19T18:17:55.617Z,97865.94
2023-02-19T18:20:28.551Z,97865.22
2023-02-19T18:23:01.334Z,97864.69
2023-02-19T18:25:32.622Z,97864.09
2023-02-19T18:28:02.692Z,97863.88
2023-02-19T18:30:36.097Z,97871.78
2023-02-19T18:33:06.864Z,97883.41
2023-02-19T18:35:36.856Z,97878.94
2023-02-19T18:38:08.330Z,97895.22
2023-02-19T18:40:38.767Z,97905.41
2023-02-19T18:43:25.244Z,97910.56
2023-02-19T18:46:02.037Z,97942.28
2023-02-19T18:48:33.788Z,97930.72
2023-02-19T18:51:04.906Z,97947.00
2023-02-19T18:53:36.547Z,97943.28
2023-02-19T18:56:09.597Z,97942.91
2023-02-19T18:58:39.885Z,97947.69
2023-02-19T19:01:14.822Z,97962.59
2023-02-19T19:03:45.418Z,97951.34
2023-02-19T19:06:15.735Z,97935.50
2023-02-19T19:08:46.129Z,97933.91
2023-02-19T19:11:20.246Z,97941.28
2023-02-19T19:13:51.967Z,97946.03
2023-02-19T19:16:28.072Z,97950.91
2023-02-19T19:18:58.839Z,97949.25
2023-02-19T19:21:31.218Z,97949.81
2023-02-19T19:24:02.565Z,97955.56
2023-02-19T19:26:33.256Z,97951.63
2023-02-19T19:29:05.059Z,97963.13
2023-02-19T19:31:38.730Z,97964.84
2023-02-19T19:34:10.255Z,97969.22
2023-02-19T19:36:39.870Z,97965.75
2023-02-19T19:39:11.599Z,97964.44
2023-02-19T19:41:45.038Z,97963.47
2023-02-19T19:44:15.693Z,97968.47
2023-02-19T19:46:47.715Z,97974.34
2023-02-19T19:49:22.656Z,97978.53
2023-02-19T19:51:58.652Z,97993.81
2023-02-19T19:54:32.398Z,97992.91
2023-02-19T19:57:02.778Z,97991.22
2023-02-19T19:59:33.296Z,97994.50
2023-02-19T20:02:06.206Z,98003.78
2023-02-19T20:04:36.267Z,98001.84
2023-02-19T20:07:07.792Z,98014.72
2023-02-19T20:09:37.889Z,98011.59
2023-02-19T20:12:11.210Z,98010.84
2023-02-19T20:14:41.637Z,98021.72
2023-02-19T20:17:15.288Z,98019.97
2023-02-19T20:19:48.051Z,98036.38
2023-02-19T20:22:19.226Z,98041.84
2023-02-19T20:24:54.272Z,98051.00
2023-02-19T20:27:28.064Z,98058.34
2023-02-19T20:29:58.593Z,98055.59
2023-02-19T20:32:30.658Z,98053.19
2023-02-19T20:35:00.728Z,98035.28
2023-02-19T20:37:32.116Z,98046.28
2023-02-19T20:40:01.729Z,98055.56
2023-02-19T20:42:32.105Z,98063.66
2023-02-19T20:45:02.231Z,98055.75
2023-02-19T20:47:34.728Z,98069.19
2023-02-19T20:50:04.660Z,98083.97
2023-02-19T20:52:34.817Z,98078.13
2023-02-19T20:55:05.190Z,98076.63
2023-02-19T20:57:35.455Z,98075.28
2023-02-19T21:00:08.875Z,98081.38
2023-02-19T21:02:43.508Z,98078.50
2023-02-19T21:05:14.830Z,98085.53
2023-02-19T21:07:45.278Z,98093.75
2023-02-19T21:10:16.522Z,98077.25
2023-02-19T21:12:48.358Z,98087.00
2023-02-19T21:15:20.660Z,98078.38
2023-02-19T21:17:58.362Z,98063.22
2023-02-19T21:20:29.111Z,98068.19
2023-02-19T21:23:01.118Z,98070.00
2023-02-19T21:25:31.894Z,98067.09
2023-02-19T21:28:02.587Z,98068.53
2023-02-19T21:30:40.622Z,98062.81
2023-02-19T21:33:13.535Z,98073.69
2023-02-19T21:35:44.033Z,98074.81
2023-02-19T21:38:14.596Z,98078.09
2023-02-19T21:40:45.055Z,98084.16
2023-02-19T21:43:16.732Z,98078.19
2023-02-19T21:45:47.332Z,98077.56
2023-02-19T21:48:19.339Z,98086.88
2023-02-19T21:50:49.843Z,98090.09
2023-02-19T21:53:19.800Z,98102.53
2023-02-19T21:55:58.421Z,98093.59
2023-02-19T21:58:28.838Z,98102.56
2023-02-19T22:01:01.120Z,98113.53
2023-02-19T22:03:32.545Z,98111.41
2023-02-19T22:06:05.026Z,98113.41
2023-02-19T22:08:36.483Z,98120.19
2023-02-19T22:11:06.892Z,98113.28
2023-02-19T22:13:37.501Z,98114.34
2023-02-19T22:16:09.714Z,98106.13
2023-02-19T22:18:48.911Z,98115.69
2023-02-19T22:21:19.389Z,98107.28
2023-02-19T22:23:51.123Z,98113.81
2023-02-19T22:26:24.216Z,98110.19
2023-02-19T22:28:54.945Z,98103.09
2023-02-19T22:31:26.171Z,98107.69
2023-02-19T22:33:59.334Z,98119.38
2023-02-19T22:36:31.214Z,98121.06
2023-02-19T22:39:01.746Z,98122.00
2023-02-19T22:41:32.384Z,98130.84
2023-02-19T22:44:04.119Z,98134.31
2023-02-19T22:46:34.774Z,98135.53
2023-02-19T22:49:07.888Z,98147.63
2023-02-19T22:51:37.980Z,98158.91
2023-02-19T22:54:09.055Z,98139.44
2023-02-19T22:56:39.531Z,98156.19
2023-02-19T22:59:09.989Z,98167.00
2023-02-19T23:01:41.086Z,98165.44
2023-02-19T23:04:14.036Z,98170.72
2023-02-19T23:06:45.838Z,98166.25
2023-02-19T23:09:21.252Z,98167.00
2023-02-19T23:11:52.189Z,98176.69
2023-02-19T23:14:24.785Z,98181.75
2023-02-19T23:16:55.220Z,98195.25
2023-02-19T23:19:28.132Z,98198.38
2023-02-19T23:21:58.236Z,98198.75
2023-02-19T23:24:28.913Z,98194.88
2023-02-19T23:26:59.878Z,98200.69
2023-02-19T23:29:32.219Z,98192.56
2023-02-19T23:32:01.856Z,98198.38
2023-02-19T23:34:34.052Z,98201.06
2023-02-19T23:37:05.076Z,98187.53
2023-02-19T23:39:36.183Z,98193.72
2023-02-19T23:42:06.523Z,98201.44
2023-02-19T23:44:37.400Z,98208.78
2023-02-19T23:47:08.211Z,98209.59
2023-02-19T23:49:39.824Z,98214.22
2023-02-19T23:52:10.519Z,98218.09
2023-02-19T23:54:41.194Z,98224.69
2023-02-19T23:57:11.434Z,98226.63
2023-02-19T23:59:41.869Z,98226.56
